Time;durP1;ratioP1;P1;durP2;ratioP2;P2;SDS_P1;SDS_P2;PMS_P1;PMS_P2;Temp;Humidity;BMP_temperature;BMP_pressure;BME280_temperature;BME280_humidity;BME280_pressure;Samples;Min_cycle;Max_cycle;Signal;HPM_P1;HPM_P2
2021/09/05 00:02:09;;;;;;;13.20;7.97;;;13.70;99.90;;;;;;12519366;28;20685;-36
2021/09/05 00:08:12;;;;;;;15.00;7.63;;;13.60;99.90;;;;;;12519394;28;20549;-36
2021/09/05 00:14:14;;;;;;;14.50;8.00;;;13.60;99.90;;;;;;12507161;28;20053;-36
2021/09/05 00:20:15;;;;;;;15.40;8.23;;;13.50;99.90;;;;;;12507918;28;20084;-37
2021/09/05 00:26:18;;;;;;;16.15;7.57;;;13.60;99.90;;;;;;12496719;28;20498;-37
2021/09/05 00:32:19;;;;;;;14.70;8.25;;;13.40;99.90;;;;;;12514109;28;20136;-36
2021/09/05 00:38:22;;;;;;;13.93;7.57;;;13.30;99.90;;;;;;12511518;28;20135;-36
2021/09/05 00:44:24;;;;;;;13.20;7.30;;;13.20;99.90;;;;;;12509168;28;20052;-36
2021/09/05 00:50:27;;;;;;;16.33;7.93;;;13.10;99.90;;;;;;12489454;28;20065;-38
2021/09/05 00:56:35;;;;;;;13.77;7.93;;;12.80;99.90;;;;;;12513262;28;20076;-36
2021/09/05 01:02:36;;;;;;;19.45;7.88;;;12.70;99.90;;;;;;12512713;28;20143;-36
2021/09/05 01:08:39;;;;;;;15.95;8.20;;;12.80;99.90;;;;;;12508617;28;20140;-37
2021/09/05 01:14:41;;;;;;;13.43;7.78;;;12.80;99.90;;;;;;12511067;28;20080;-38
2021/09/05 01:20:43;;;;;;;12.90;6.93;;;13.10;99.90;;;;;;12510511;28;20168;-36
2021/09/05 01:26:50;;;;;;;13.82;7.70;;;13.00;99.90;;;;;;12506091;28;20049;-38
2021/09/05 01:32:52;;;;;;;14.40;7.43;;;13.00;99.90;;;;;;12509788;28;20553;-42
2021/09/05 01:38:54;;;;;;;12.60;7.70;;;13.00;99.90;;;;;;12489913;28;20056;-37
2021/09/05 01:44:56;;;;;;;12.70;7.30;;;13.00;99.90;;;;;;12508959;28;20056;-36
2021/09/05 01:51:01;;;;;;;13.43;7.35;;;13.00;99.90;;;;;;12517413;28;20646;-38
2021/09/05 01:57:04;;;;;;;15.43;7.22;;;12.90;99.90;;;;;;12509433;28;20049;-37
2021/09/05 02:03:05;;;;;;;14.85;7.57;;;12.90;99.90;;;;;;12514241;28;20060;-38
2021/09/05 02:09:10;;;;;;;12.85;7.63;;;12.80;99.90;;;;;;12512076;28;20612;-36
2021/09/05 02:15:12;;;;;;;15.75;7.43;;;12.80;99.90;;;;;;12524568;28;20102;-37
2021/09/05 02:21:15;;;;;;;13.88;7.97;;;12.70;99.90;;;;;;12520753;28;20132;-37
2021/09/05 02:27:19;;;;;;;15.43;7.85;;;12.70;99.90;;;;;;12521624;28;20049;-36
2021/09/05 02:33:21;;;;;;;12.32;7.72;;;12.70;99.90;;;;;;12501371;28;20172;-37
2021/09/05 02:39:23;;;;;;;14.35;8.10;;;12.50;99.90;;;;;;12517181;28;20080;-38
2021/09/05 02:45:25;;;;;;;13.18;8.00;;;12.40;99.90;;;;;;12519548;28;20667;-38
2021/09/05 02:51:27;;;;;;;17.75;8.65;;;12.50;99.90;;;;;;12511968;28;20106;-37
2021/09/05 02:57:29;;;;;;;12.88;7.90;;;12.40;99.90;;;;;;12510482;28;20511;-37
2021/09/05 03:03:31;;;;;;;23.65;8.40;;;12.40;99.90;;;;;;12510558;28;20041;-36
2021/09/05 03:09:35;;;;;;;16.73;8.32;;;12.40;99.90;;;;;;12510006;28;20050;-36
2021/09/05 03:15:37;;;;;;;14.88;8.57;;;12.50;99.90;;;;;;12507467;28;20600;-36
2021/09/05 03:21:39;;;;;;;16.27;8.10;;;12.40;99.90;;;;;;12510950;28;20051;-36
2021/09/05 03:27:42;;;;;;;14.33;7.93;;;12.40;99.90;;;;;;12507446;28;20057;-38
2021/09/05 03:33:44;;;;;;;13.45;8.90;;;12.40;99.90;;;;;;12507088;28;20072;-37
2021/09/05 03:39:46;;;;;;;14.20;8.88;;;12.30;99.90;;;;;;12522949;28;20457;-37
2021/09/05 03:45:48;;;;;;;14.35;8.05;;;12.30;99.90;;;;;;12513129;28;20805;-37
2021/09/05 03:51:50;;;;;;;15.02;8.95;;;12.30;99.90;;;;;;12515232;28;20053;-37
2021/09/05 03:57:52;;;;;;;15.02;8.15;;;12.30;99.90;;;;;;12515241;28;20087;-36
2021/09/05 04:03:54;;;;;;;13.52;8.25;;;12.30;99.90;;;;;;12522007;28;20045;-39
2021/09/05 04:10:09;;;;;;;12.73;7.65;;;12.30;99.90;;;;;;12515113;28;20106;-36
2021/09/05 04:16:12;;;;;;;14.45;7.45;;;12.20;99.90;;;;;;12510772;28;20412;-38
2021/09/05 04:22:15;;;;;;;14.85;7.18;;;12.20;99.90;;;;;;12516944;28;20837;-36
2021/09/05 04:28:17;;;;;;;13.48;7.45;;;12.20;99.90;;;;;;12523532;28;20091;-37
2021/09/05 04:34:19;;;;;;;13.27;7.18;;;12.30;99.90;;;;;;12518798;28;20087;-36
2021/09/05 04:40:24;;;;;;;11.18;6.20;;;12.20;99.90;;;;;;12512017;28;20052;-36
2021/09/05 04:46:29;;;;;;;15.48;6.78;;;12.30;99.90;;;;;;12515913;28;20869;-36
2021/09/05 04:52:31;;;;;;;10.65;7.22;;;12.30;99.90;;;;;;12503504;28;20492;-38
2021/09/05 04:58:34;;;;;;;11.80;7.82;;;12.20;99.90;;;;;;12510620;28;20053;-38
2021/09/05 05:04:36;;;;;;;15.32;8.50;;;12.20;99.90;;;;;;12511254;28;20052;-37
2021/09/05 05:10:38;;;;;;;14.30;7.30;;;12.00;99.90;;;;;;12516112;28;20056;-37
2021/09/05 05:16:40;;;;;;;14.40;7.07;;;12.40;99.90;;;;;;12504848;28;20053;-37
2021/09/05 05:22:44;;;;;;;14.07;7.55;;;12.40;99.90;;;;;;12508635;28;20076;-37
2021/09/05 05:28:46;;;;;;;17.17;7.03;;;12.30;99.90;;;;;;12516809;28;20060;-37
2021/09/05 05:34:51;;;;;;;12.52;6.72;;;12.20;99.90;;;;;;12504897;28;20080;-38
2021/09/05 05:40:54;;;;;;;14.25;6.50;;;12.20;99.90;;;;;;12515510;28;20089;-38
2021/09/05 05:46:58;;;;;;;14.55;6.95;;;12.30;99.90;;;;;;12511309;28;20056;-38
2021/09/05 05:53:00;;;;;;;11.07;6.30;;;12.40;99.90;;;;;;12519056;28;20079;-36
2021/09/05 05:59:08;;;;;;;18.45;6.75;;;12.20;99.90;;;;;;12517163;28;20125;-38
2021/09/05 06:05:13;;;;;;;13.95;7.03;;;12.20;99.90;;;;;;12510461;28;20057;-37
2021/09/05 06:11:20;;;;;;;15.18;6.80;;;12.50;99.90;;;;;;12508075;28;20117;-37
2021/09/05 06:17:22;;;;;;;15.50;7.00;;;12.40;99.90;;;;;;12511617;28;20535;-38
2021/09/05 06:23:25;;;;;;;13.25;7.32;;;12.50;99.90;;;;;;12509939;28;20079;-37
2021/09/05 06:29:26;;;;;;;12.05;5.88;;;12.70;99.90;;;;;;12511482;28;20148;-38
2021/09/05 06:35:29;;;;;;;12.10;6.35;;;12.90;99.90;;;;;;12511799;28;20053;-39
2021/09/05 06:41:31;;;;;;;11.85;5.80;;;12.90;99.90;;;;;;12510788;28;20441;-36
2021/09/05 06:47:33;;;;;;;12.95;5.60;;;13.10;99.90;;;;;;12505804;28;20049;-37
2021/09/05 06:53:35;;;;;;;11.82;5.25;;;13.30;99.90;;;;;;12509206;28;20086;-36
2021/09/05 06:59:37;;;;;;;13.13;6.03;;;13.50;99.90;;;;;;12518520;28;20906;-39
2021/09/05 07:05:42;;;;;;;11.80;5.97;;;13.60;99.90;;;;;;12524272;28;20758;-37
2021/09/05 07:11:44;;;;;;;11.93;5.90;;;13.80;99.90;;;;;;12523755;28;20132;-37
2021/09/05 07:17:48;;;;;;;11.05;5.43;;;14.00;99.90;;;;;;12520566;28;20084;-38
2021/09/05 07:23:51;;;;;;;8.20;4.85;;;14.30;99.90;;;;;;12515736;28;20374;-38
2021/09/05 07:29:53;;;;;;;12.60;6.53;;;14.30;99.90;;;;;;12517210;28;20049;-37
2021/09/05 07:35:55;;;;;;;10.30;5.88;;;14.30;99.90;;;;;;12517938;28;20069;-39
2021/09/05 07:41:57;;;;;;;10.82;6.43;;;14.50;99.90;;;;;;12514681;28;20095;-37
2021/09/05 07:47:59;;;;;;;11.48;6.07;;;14.60;99.90;;;;;;12509598;28;20065;-41
2021/09/05 07:54:01;;;;;;;13.05;5.82;;;14.80;99.90;;;;;;12518211;28;20642;-37
2021/09/05 08:00:04;;;;;;;13.18;6.63;;;14.80;99.90;;;;;;12520314;28;20074;-37
2021/09/05 08:06:07;;;;;;;17.75;6.63;;;15.00;99.90;;;;;;12514157;28;20090;-37
2021/09/05 08:12:09;;;;;;;11.57;6.15;;;15.10;99.90;;;;;;12517840;28;20050;-39
2021/09/05 08:18:11;;;;;;;11.90;5.72;;;15.30;99.90;;;;;;12514137;28;20189;-37
2021/09/05 08:24:13;;;;;;;12.65;6.38;;;15.50;99.90;;;;;;12488494;28;20685;-36
2021/09/05 08:30:16;;;;;;;11.57;6.72;;;15.70;99.90;;;;;;12507850;28;20053;-37
2021/09/05 08:36:17;;;;;;;10.55;5.85;;;15.90;99.90;;;;;;12504612;28;20490;-37
2021/09/05 08:42:19;;;;;;;12.35;6.25;;;16.10;99.90;;;;;;12506057;28;20091;-36
2021/09/05 08:48:22;;;;;;;13.60;6.07;;;16.40;99.90;;;;;;12507419;28;20045;-36
2021/09/05 08:54:25;;;;;;;17.40;6.30;;;16.60;99.90;;;;;;12505389;28;20076;-38
2021/09/05 09:00:27;;;;;;;10.75;5.30;;;16.60;99.90;;;;;;12501419;28;20165;-38
2021/09/05 09:06:36;;;;;;;12.45;5.75;;;16.70;99.90;;;;;;12511539;28;20049;-37
2021/09/05 09:12:49;;;;;;;12.63;5.53;;;16.90;99.90;;;;;;12506814;28;20073;-36
2021/09/05 09:18:52;;;;;;;10.30;5.63;;;17.10;99.90;;;;;;12508629;28;20087;-37
2021/09/05 09:24:55;;;;;;;7.60;4.68;;;17.40;99.90;;;;;;12509609;28;20061;-38
2021/09/05 09:31:11;;;;;;;8.32;5.28;;;17.50;99.90;;;;;;12514525;28;20086;-36
2021/09/05 09:37:17;;;;;;;9.23;5.07;;;17.70;99.90;;;;;;12518921;28;20977;-37
2021/09/05 09:43:21;;;;;;;16.42;5.63;;;17.80;99.90;;;;;;12512341;28;20053;-37
2021/09/05 09:49:24;;;;;;;12.95;5.38;;;17.90;99.90;;;;;;12512839;28;20061;-40
2021/09/05 09:55:26;;;;;;;9.40;5.30;;;17.90;99.90;;;;;;12512891;28;20041;-37
2021/09/05 10:01:31;;;;;;;9.57;5.28;;;18.20;99.90;;;;;;12513075;28;20090;-37
2021/09/05 10:07:33;;;;;;;10.50;5.85;;;18.20;99.90;;;;;;12508082;28;20046;-39
2021/09/05 10:13:38;;;;;;;10.68;5.72;;;18.20;99.90;;;;;;12498385;28;20050;-37
2021/09/05 10:19:41;;;;;;;10.30;5.95;;;18.20;99.90;;;;;;12511735;28;20299;-37
2021/09/05 10:25:52;;;;;;;10.77;5.90;;;18.70;99.90;;;;;;12510311;28;20091;-37
2021/09/05 10:31:54;;;;;;;11.57;6.35;;;18.90;99.90;;;;;;12519762;28;20332;-38
2021/09/05 10:38:11;;;;;;;13.35;6.00;;;18.90;99.90;;;;;;12515864;28;20448;-39
2021/09/05 10:44:13;;;;;;;16.45;6.40;;;19.00;99.90;;;;;;12516182;28;20075;-37
2021/09/05 10:50:36;;;;;;;11.18;7.15;;;19.50;99.90;;;;;;12514316;28;20072;-37
2021/09/05 10:56:48;;;;;;;10.73;6.03;;;19.80;99.90;;;;;;12491986;28;20107;-37
2021/09/05 11:03:08;;;;;;;10.20;6.50;;;19.70;99.90;;;;;;12507242;28;20140;-38
2021/09/05 11:09:22;;;;;;;12.80;6.57;;;20.00;99.90;;;;;;12512127;28;20041;-41
2021/09/05 11:15:25;;;;;;;12.27;6.82;;;20.00;99.90;;;;;;12511608;28;20520;-38
2021/09/05 11:21:28;;;;;;;11.75;6.88;;;19.90;99.90;;;;;;12507422;28;20098;-40
2021/09/05 11:27:31;;;;;;;12.27;7.07;;;20.40;99.90;;;;;;12506885;28;20124;-37
2021/09/05 11:33:33;;;;;;;14.05;6.85;;;20.30;99.90;;;;;;12508701;28;20242;-38
2021/09/05 11:39:35;;;;;;;12.45;7.43;;;20.40;99.90;;;;;;12497171;28;20892;-38
2021/09/05 11:45:40;;;;;;;13.85;7.10;;;20.30;99.90;;;;;;12507477;28;20501;-38
2021/09/05 11:51:58;;;;;;;10.32;6.68;;;20.80;99.90;;;;;;12507760;28;20169;-39
2021/09/05 11:58:06;;;;;;;14.63;7.13;;;21.00;99.90;;;;;;12507665;28;20037;-39
2021/09/05 12:04:13;;;;;;;11.35;7.10;;;21.30;99.90;;;;;;12506200;28;20143;-38
2021/09/05 12:10:27;;;;;;;11.20;7.38;;;21.30;99.90;;;;;;12508089;28;20056;-38
2021/09/05 12:16:31;;;;;;;10.90;6.95;;;21.50;99.90;;;;;;12511292;28;20056;-39
2021/09/05 12:22:50;;;;;;;;;;;21.60;99.90;;;;;;12521545;28;20080;-40
2021/09/05 12:29:01;;;;;;;15.10;8.80;;;21.70;99.90;;;;;;12511850;28;20343;-38
2021/09/05 12:35:04;;;;;;;11.68;7.80;;;21.80;99.90;;;;;;12512106;28;20061;-37
2021/09/05 12:41:13;;;;;;;13.77;8.07;;;22.10;99.90;;;;;;12512551;28;20053;-40
2021/09/05 12:47:29;;;;;;;12.88;8.25;;;21.70;99.90;;;;;;12505759;28;20058;-37
2021/09/05 12:53:32;;;;;;;15.52;8.63;;;21.80;99.90;;;;;;12503519;28;20091;-38
2021/09/05 12:59:34;;;;;;;13.35;8.30;;;21.40;99.90;;;;;;12520799;28;20045;-38
2021/09/05 13:05:36;;;;;;;14.05;8.60;;;21.20;99.90;;;;;;12514964;28;20040;-40
2021/09/05 13:11:40;;;;;;;12.47;8.33;;;21.30;99.90;;;;;;12515137;28;20052;-44
2021/09/05 13:17:42;;;;;;;11.85;9.15;;;21.70;99.90;;;;;;12512611;28;20885;-38
2021/09/05 13:23:46;;;;;;;13.60;9.07;;;21.30;99.90;;;;;;12516056;28;20404;-39
2021/09/05 13:29:48;;;;;;;13.48;8.88;;;21.10;99.90;;;;;;12516786;28;20056;-40
2021/09/05 13:35:50;;;;;;;16.25;8.75;;;21.20;99.90;;;;;;12512182;28;20076;-39
2021/09/05 13:41:52;;;;;;;16.13;9.48;;;21.00;99.90;;;;;;12514218;28;20100;-39
2021/09/05 13:47:54;;;;;;;15.05;8.85;;;20.90;99.90;;;;;;12514917;28;20068;-38
2021/09/05 13:53:56;;;;;;;13.00;9.38;;;20.70;99.90;;;;;;12508984;28;20052;-38
2021/09/05 13:59:58;;;;;;;16.83;9.57;;;20.40;99.90;;;;;;12511173;28;20049;-39
2021/09/05 14:06:00;;;;;;;18.40;9.60;;;20.60;99.90;;;;;;12516258;28;20050;-38
2021/09/05 14:12:03;;;;;;;13.88;9.20;;;20.50;99.90;;;;;;12519068;28;20383;-38
2021/09/05 14:18:05;;;;;;;13.87;9.57;;;20.40;99.90;;;;;;12522893;28;20080;-38
2021/09/05 14:24:08;;;;;;;13.23;7.97;;;20.80;99.90;;;;;;12523182;28;20045;-38
2021/09/05 14:30:17;;;;;;;12.88;8.75;;;21.00;99.90;;;;;;12512886;28;20167;-38
2021/09/05 14:49:11;;;;;;;15.80;9.35;;;21.00;99.90;;;;;;12526956;28;20041;-38
2021/09/05 14:55:13;;;;;;;13.13;8.68;;;20.70;99.90;;;;;;12518335;28;20125;-38
2021/09/05 15:01:18;;;;;;;15.05;9.35;;;21.10;99.90;;;;;;12519856;28;20056;-39
2021/09/05 15:13:41;;;;;;;12.98;8.23;;;21.10;99.90;;;;;;12520004;28;20377;-38
2021/09/05 15:19:43;;;;;;;11.55;7.60;;;21.10;99.90;;;;;;12515815;28;20056;-38
2021/09/05 15:25:45;;;;;;;12.60;8.35;;;21.30;99.90;;;;;;12520028;28;20041;-38
2021/09/05 15:32:15;;;;;;;13.32;8.90;;;21.30;99.90;;;;;;12519339;28;20664;-39
2021/09/05 15:38:37;;;;;;;13.57;8.77;;;21.00;99.90;;;;;;12514493;28;20049;-38
2021/09/05 15:51:25;;;;;;;12.38;8.07;;;21.10;99.90;;;;;;12429674;28;20140;-41
2021/09/05 15:57:28;;;;;;;14.98;8.52;;;21.10;99.90;;;;;;12510407;28;20541;-38
2021/09/05 16:16:32;;;;;;;11.00;7.28;;;21.50;99.90;;;;;;12517509;28;20088;-37
2021/09/05 16:22:34;;;;;;;10.90;7.30;;;21.50;99.90;;;;;;12507475;28;20485;-37
2021/09/05 16:28:36;;;;;;;11.88;7.63;;;21.30;99.90;;;;;;12515889;28;20049;-37
2021/09/05 16:40:58;;;;;;;13.95;8.10;;;21.00;99.90;;;;;;12513314;28;20148;-39
2021/09/05 16:47:01;;;;;;;12.32;7.22;;;20.80;99.90;;;;;;12513795;28;20068;-41
2021/09/05 16:53:04;;;;;;;10.10;6.95;;;20.70;99.90;;;;;;12511631;28;20076;-37
2021/09/05 16:59:06;;;;;;;10.88;8.00;;;20.30;99.90;;;;;;12505557;28;20061;-41
2021/09/05 17:05:09;;;;;;;14.73;8.95;;;20.10;99.90;;;;;;12504389;28;20042;-38
2021/09/05 17:11:19;;;;;;;11.80;8.48;;;19.80;99.90;;;;;;12511898;28;20049;-40
2021/09/05 17:17:21;;;;;;;11.20;8.13;;;19.60;99.90;;;;;;12511354;28;20061;-38
2021/09/05 17:23:23;;;;;;;12.55;9.13;;;19.30;99.90;;;;;;12506824;28;20103;-39
2021/09/05 17:29:29;;;;;;;16.00;9.55;;;18.90;99.90;;;;;;12507061;28;20059;-38
2021/09/05 17:35:31;;;;;;;14.37;9.07;;;18.60;99.90;;;;;;12509985;28;20153;-39
2021/09/05 17:41:34;;;;;;;18.15;8.38;;;18.70;99.90;;;;;;12512438;28;20045;-40
2021/09/05 17:47:36;;;;;;;14.53;8.63;;;18.50;99.90;;;;;;12518376;28;20138;-40
2021/09/05 17:53:38;;;;;;;14.30;9.43;;;18.40;99.90;;;;;;12515662;28;20118;-39
2021/09/05 17:59:41;;;;;;;13.00;8.77;;;18.40;99.90;;;;;;12516628;28;20210;-41
2021/09/05 18:05:44;;;;;;;16.27;9.18;;;18.50;99.90;;;;;;12514020;28;20045;-41
2021/09/05 18:11:47;;;;;;;17.88;9.70;;;18.40;99.90;;;;;;12490189;28;20429;-39
2021/09/05 18:17:49;;;;;;;16.13;9.60;;;18.20;99.90;;;;;;12509452;28;20103;-39
2021/09/05 18:23:51;;;;;;;17.23;9.48;;;18.10;99.90;;;;;;12516724;28;20052;-41
2021/09/05 18:29:52;;;;;;;15.00;10.32;;;18.00;99.90;;;;;;12510818;28;20053;-38
2021/09/05 18:35:55;;;;;;;16.05;9.57;;;17.80;99.90;;;;;;12511428;28;20049;-38
2021/09/05 18:41:59;;;;;;;17.15;9.80;;;17.60;99.90;;;;;;12513902;28;20052;-41
2021/09/05 18:48:01;;;;;;;17.42;9.98;;;17.30;99.90;;;;;;12517790;28;20500;-37
2021/09/05 18:54:03;;;;;;;14.70;9.70;;;17.10;99.90;;;;;;12521680;28;20183;-38
2021/09/05 19:00:06;;;;;;;17.90;9.57;;;16.80;99.90;;;;;;12519237;28;20132;-39
2021/09/05 19:06:09;;;;;;;15.77;9.55;;;16.70;99.90;;;;;;12521660;28;20045;-39
2021/09/05 19:12:12;;;;;;;14.27;9.05;;;16.70;99.90;;;;;;12516958;28;20045;-38
2021/09/05 19:18:14;;;;;;;13.80;9.13;;;16.70;99.90;;;;;;12519386;28;20056;-38
2021/09/05 19:24:16;;;;;;;16.75;9.30;;;16.60;99.90;;;;;;12513322;28;20057;-39
2021/09/05 19:30:18;;;;;;;15.85;9.23;;;16.60;99.90;;;;;;12517769;28;20054;-37
2021/09/05 19:36:20;;;;;;;18.35;8.25;;;16.60;99.90;;;;;;12511555;28;20057;-37
2021/09/05 19:42:22;;;;;;;11.73;8.73;;;16.60;99.90;;;;;;12516116;28;20049;-37
2021/09/05 19:48:24;;;;;;;12.27;8.68;;;16.40;99.90;;;;;;12516137;28;20445;-38
2021/09/05 19:54:26;;;;;;;13.68;8.77;;;16.50;99.90;;;;;;12512929;28;20443;-38
2021/09/05 20:00:28;;;;;;;14.20;8.40;;;16.70;99.90;;;;;;12513440;28;20049;-37
2021/09/05 20:06:30;;;;;;;11.82;7.93;;;16.60;99.90;;;;;;12514598;28;20064;-37
2021/09/05 20:12:32;;;;;;;13.68;9.18;;;16.60;99.90;;;;;;12515288;28;20049;-39
2021/09/05 20:18:34;;;;;;;17.35;8.98;;;16.60;99.90;;;;;;12500726;28;20055;-39
2021/09/05 20:24:36;;;;;;;14.20;8.25;;;16.50;99.90;;;;;;12515080;28;20072;-37
2021/09/05 20:30:38;;;;;;;15.05;9.38;;;16.30;99.90;;;;;;12509716;28;20131;-38
2021/09/05 20:36:41;;;;;;;13.13;9.27;;;16.30;99.90;;;;;;12513124;28;20049;-37
2021/09/05 20:42:44;;;;;;;13.48;8.82;;;16.20;99.90;;;;;;12512666;28;20555;-38
2021/09/05 20:48:46;;;;;;;14.20;8.45;;;16.00;99.90;;;;;;12513960;28;20045;-37
2021/09/05 20:54:48;;;;;;;16.25;8.52;;;16.00;99.90;;;;;;12515115;28;20135;-38
2021/09/05 21:00:50;;;;;;;13.57;8.63;;;16.00;99.90;;;;;;12493184;28;20595;-38
2021/09/05 21:06:53;;;;;;;14.45;8.13;;;16.00;99.90;;;;;;12494567;28;20041;-38
2021/09/05 21:12:55;;;;;;;16.63;9.88;;;16.00;99.90;;;;;;12512425;28;20180;-37
2021/09/05 21:18:57;;;;;;;15.98;9.45;;;15.80;99.90;;;;;;12509147;28;20087;-37
2021/09/05 21:24:59;;;;;;;19.02;9.88;;;15.80;99.90;;;;;;12508495;28;20144;-37
2021/09/05 21:31:01;;;;;;;14.20;10.30;;;15.80;99.90;;;;;;12509797;28;20202;-37
2021/09/05 21:37:03;;;;;;;17.98;10.82;;;15.70;99.90;;;;;;12515404;28;20145;-38
2021/09/05 21:43:04;;;;;;;24.02;11.75;;;15.50;99.90;;;;;;12508216;28;20592;-37
2021/09/05 21:49:09;;;;;;;15.60;9.85;;;15.50;99.90;;;;;;12509046;28;20090;-38
2021/09/05 21:55:14;;;;;;;16.00;11.23;;;15.70;99.90;;;;;;12508936;28;20124;-37
2021/09/05 22:01:20;;;;;;;18.10;11.70;;;15.70;99.90;;;;;;12508610;28;20065;-38
2021/09/05 22:07:23;;;;;;;21.30;12.25;;;15.70;99.90;;;;;;12510339;28;20056;-37
2021/09/05 22:13:25;;;;;;;16.63;11.65;;;15.60;99.90;;;;;;12512093;28;20045;-38
2021/09/05 22:19:26;;;;;;;18.38;12.80;;;15.60;99.90;;;;;;12507991;28;20060;-36
2021/09/05 22:25:28;;;;;;;17.60;11.57;;;15.60;99.90;;;;;;12511914;28;20150;-36
2021/09/05 22:31:30;;;;;;;18.55;12.10;;;15.50;99.90;;;;;;12519512;28;20140;-37
2021/09/05 22:37:32;;;;;;;21.08;12.80;;;15.40;99.90;;;;;;12514747;28;20083;-37
2021/09/05 22:43:34;;;;;;;24.70;12.50;;;15.40;99.90;;;;;;12519294;28;20853;-38
2021/09/05 22:49:36;;;;;;;18.05;12.40;;;15.30;99.90;;;;;;12512561;28;20104;-39
2021/09/05 22:55:38;;;;;;;17.70;12.48;;;15.20;99.90;;;;;;12520858;28;20493;-37
2021/09/05 23:01:40;;;;;;;22.98;13.00;;;15.10;99.90;;;;;;12506996;28;20086;-37
2021/09/05 23:07:43;;;;;;;18.67;12.48;;;14.90;99.90;;;;;;12514878;28;20048;-38
2021/09/05 23:13:46;;;;;;;18.55;12.68;;;14.80;99.90;;;;;;12513641;28;20084;-37
2021/09/05 23:19:48;;;;;;;19.90;13.32;;;14.80;99.90;;;;;;12516282;28;20168;-37
2021/09/05 23:25:50;;;;;;;19.25;13.32;;;14.80;99.90;;;;;;12507361;28;20037;-37
2021/09/05 23:31:52;;;;;;;17.88;12.15;;;14.70;99.90;;;;;;12517055;28;20948;-36
2021/09/05 23:37:54;;;;;;;20.92;12.82;;;14.60;99.90;;;;;;12516068;28;20037;-37
2021/09/05 23:43:56;;;;;;;20.65;12.00;;;14.50;99.90;;;;;;12515927;28;20464;-37
2021/09/05 23:49:58;;;;;;;20.42;12.90;;;14.40;99.90;;;;;;12515903;28;20512;-37
2021/09/05 23:56:00;;;;;;;20.65;12.13;;;14.40;99.90;;;;;;12515502;28;20079;-37
